CSAV Lonquen — A8OT2 — position and weather

sailwx.info

Track history (hours):
 
Tides and Currents Weather Stations Pressure Air Temp Water Temp Dewpoint Dewpoint Depression Visibility Wind Speed Wind Dir Waves Ship Positions

CSAV Lonquen

Last reported at 2014-Dec-20 14:16 UTC. Time now 2014-Dec-22 15:40 UTC.
Position N 34°18' E 025°11'.

Length 261 m; draft 11.2 m.

Type: Ship (hazmat cat A). MMSI: 636091501.

Date/timePositionNaut miles runAvg speedWind from/ knotsBaromVisibWave heightAir tempDewpointWater temp
2014-Dec-20 14:16N 34°18' E 025°11'5414.2
2014-Dec-20 10:28N 34°01' E 026°13'  
2014-Dec-18 02:18N 31°54' E 034°29'1317.1
2014-Dec-18 01:33N 31°59' E 034°15'  
2014-Dec-13 15:33N 34°10' E 032°47'1010.0
2014-Dec-13 14:33N 34°18' E 032°54'10 9.6
2014-Dec-13 13:33N 34°25' E 033°02'9 9.0
2014-Dec-13 12:33N 34°33' E 033°07'7 7.2
2014-Dec-13 11:31N 34°39' E 033°01'0 0.1
2014-Dec-13 10:31N 34°39' E 033°01'0 0.0
2014-Dec-13 09:31N 34°39' E 033°01'0 0.0
2014-Dec-13 08:31N 34°39' E 033°01'0 0.0
2014-Dec-13 07:31N 34°39' E 033°01'0 0.0
2014-Dec-13 06:31N 34°39' E 033°01'0 0.0
2014-Dec-13 05:31N 34°39' E 033°01'0 0.0
2014-Dec-13 04:31N 34°39' E 033°01'0 0.0
2014-Dec-13 03:31N 34°39' E 033°01'0 0.0
2014-Dec-13 02:31N 34°39' E 033°01'0 0.0
2014-Dec-13 01:31N 34°39' E 033°01'0 0.0
2014-Dec-13 00:31N 34°39' E 033°01'0 0.0
2014-Dec-12 23:31N 34°39' E 033°01'0 0.0
2014-Dec-12 22:31N 34°39' E 033°01'0 0.0
2014-Dec-12 21:31N 34°39' E 033°01'0 0.0
2014-Dec-12 20:31N 34°39' E 033°01'0 0.0
2014-Dec-12 19:31N 34°39' E 033°01'0 0.0
2014-Dec-12 18:31N 34°39' E 033°01'0 0.0
2014-Dec-12 17:31N 34°39' E 033°01'0 0.0
2014-Dec-12 16:31N 34°39' E 033°01'0 0.0
2014-Dec-12 15:33N 34°39' E 033°01'4 3.9
2014-Dec-12 14:34N 34°39' E 033°06'1 0.6
2014-Dec-12 13:34N 34°38' E 033°06'1 1.1
2014-Dec-12 12:33N 34°38' E 033°05'4 4.5
2014-Dec-12 11:33N 34°34' E 033°08'8 8.4
2014-Dec-12 10:33N 34°26' E 033°11'10 9.2
2014-Dec-12 09:30N 34°17' E 033°16'1311.6
2014-Dec-12 08:22N 34°05' E 033°23'9410.5
2014-Dec-11 23:22N 32°56' E 034°40'14 0.7
2014-Dec-11 02:17N 32°53' E 034°56'1014.3
2014-Dec-11 01:33N 32°55' E 034°44'  
Track history (hours):
 
Tides and Currents Weather Stations Pressure Air Temp Water Temp Dewpoint Dewpoint Depression Visibility Wind Speed Wind Dir Waves Ship Positions

CSAV Lonquen

Last reported at 2014-Dec-20 14:16 UTC. Time now 2014-Dec-22 15:40 UTC.
Position N 34°18' E 025°11'.

Length 261 m; draft 11.2 m.

Type: Ship (hazmat cat A). MMSI: 636091501.

Date/timePositionNaut miles runAvg speedWind from/ knotsBaromVisibWave heightAir tempDewpointWater temp
2014-Dec-20 14:16N 34°18' E 025°11'5414.2
2014-Dec-20 10:28N 34°01' E 026°13'  
2014-Dec-18 02:18N 31°54' E 034°29'1317.1
2014-Dec-18 01:33N 31°59' E 034°15'  
2014-Dec-13 15:33N 34°10' E 032°47'1010.0
2014-Dec-13 14:33N 34°18' E 032°54'10 9.6
2014-Dec-13 13:33N 34°25' E 033°02'9 9.0
2014-Dec-13 12:33N 34°33' E 033°07'7 7.2
2014-Dec-13 11:31N 34°39' E 033°01'0 0.1
2014-Dec-13 10:31N 34°39' E 033°01'0 0.0
2014-Dec-13 09:31N 34°39' E 033°01'0 0.0
2014-Dec-13 08:31N 34°39' E 033°01'0 0.0
2014-Dec-13 07:31N 34°39' E 033°01'0 0.0
2014-Dec-13 06:31N 34°39' E 033°01'0 0.0
2014-Dec-13 05:31N 34°39' E 033°01'0 0.0
2014-Dec-13 04:31N 34°39' E 033°01'0 0.0
2014-Dec-13 03:31N 34°39' E 033°01'0 0.0
2014-Dec-13 02:31N 34°39' E 033°01'0 0.0
2014-Dec-13 01:31N 34°39' E 033°01'0 0.0
2014-Dec-13 00:31N 34°39' E 033°01'0 0.0
2014-Dec-12 23:31N 34°39' E 033°01'0 0.0
2014-Dec-12 22:31N 34°39' E 033°01'0 0.0
2014-Dec-12 21:31N 34°39' E 033°01'0 0.0
2014-Dec-12 20:31N 34°39' E 033°01'0 0.0
2014-Dec-12 19:31N 34°39' E 033°01'0 0.0
2014-Dec-12 18:31N 34°39' E 033°01'0 0.0
2014-Dec-12 17:31N 34°39' E 033°01'0 0.0
2014-Dec-12 16:31N 34°39' E 033°01'0 0.0
2014-Dec-12 15:33N 34°39' E 033°01'4 3.9
2014-Dec-12 14:34N 34°39' E 033°06'1 0.6
2014-Dec-12 13:34N 34°38' E 033°06'1 1.1
2014-Dec-12 12:33N 34°38' E 033°05'4 4.5
2014-Dec-12 11:33N 34°34' E 033°08'8 8.4
2014-Dec-12 10:33N 34°26' E 033°11'10 9.2
2014-Dec-12 09:30N 34°17' E 033°16'1311.6
2014-Dec-12 08:22N 34°05' E 033°23'9410.5
2014-Dec-11 23:22N 32°56' E 034°40'14 0.7
2014-Dec-11 02:17N 32°53' E 034°56'1014.3
2014-Dec-11 01:33N 32°55' E 034°44'  

Dump ship's entire track history